BGSF

Kangerlussuaq Airport

Kangerlussuaq, Greenland
METAR BGSF 200650Z AUTO 05006KT 9999NDV NCD M18/M21 Q1005
Observed Flight Rules
Jan-20 @ 06:50 UTC (15 minutes ago)
Wind Clouds
50° at 6 knots
  • Clear skies
Temperatures Readings
Current -18°C / 0°F
Dewpoint -21°C / -6°F
Humidity 78%
Altimeter 29.68" Hg
Pressure 1005 hPa
Elevation 53
METAR BGSF 200650Z AUTO 05006KT 9999NDV NCD M18/M21 Q1005
Observed Flight Rules
Jan-20 @ 06:50 UTC
(15 minutes ago)
Wind
50° at 6 knots
Clouds
  • Clear skies
Temperature Dewpoint
-18°C / 0°F -21°C / -6°F
Humidity Altimeter Pressure
78% 29.68" Hg 1005 hPa